Time;durP1;ratioP1;P1;durP2;ratioP2;P2;SDS_P1;SDS_P2;PMS_P1;PMS_P2;Temp;Humidity;BMP_temperature;BMP_pressure;BME280_temperature;BME280_humidity;BME280_pressure;Samples;Min_cycle;Max_cycle;Signal;HPM_P1;HPM_P2
2021/04/24 00:00:54;;;;;;;2.67;1.52;;;;;;;18.22;33.18;102927.97;4180022;28;20028;-60
2021/04/24 00:02:55;;;;;;;3.53;1.67;;;;;;;18.14;33.21;102921.59;4182657;28;20044;-60
2021/04/24 00:04:56;;;;;;;2.55;1.58;;;;;;;18.13;33.39;102919.91;4176426;28;20052;-60
2021/04/24 00:06:57;;;;;;;2.42;1.67;;;;;;;18.13;33.39;102928.22;4177003;28;20414;-60
2021/04/24 00:08:59;;;;;;;2.42;2.13;;;;;;;18.09;33.35;102912.25;4177290;28;20103;-61
2021/04/24 00:11:00;;;;;;;1.95;1.48;;;;;;;18.06;33.29;102918.25;4179387;28;20032;-60
2021/04/24 00:13:02;;;;;;;3.75;2.25;;;;;;;18.02;33.29;102926.16;4176061;28;20033;-60
2021/04/24 00:15:11;;;;;;;2.33;1.98;;;;;;;18.00;33.13;102923.59;4178972;28;20037;-60
2021/04/24 00:17:11;;;;;;;2.90;1.83;;;;;;;17.98;33.20;102920.22;4175536;28;20123;-60
2021/04/24 00:19:12;;;;;;;2.60;1.95;;;;;;;17.84;33.50;102910.25;4175961;28;20061;-59
2021/04/24 00:21:13;;;;;;;1.58;1.45;;;;;;;17.94;33.30;102915.34;4179265;28;20102;-60
2021/04/24 00:23:16;;;;;;;6.22;2.38;;;;;;;17.86;33.33;102913.69;4175354;28;20060;-60
2021/04/24 00:25:17;;;;;;;2.35;1.90;;;;;;;17.90;33.19;102916.84;4174800;28;20458;-60
2021/04/24 00:27:17;;;;;;;3.40;1.70;;;;;;;17.87;33.25;102922.84;4174391;28;20041;-60
2021/04/24 00:29:18;;;;;;;3.53;1.90;;;;;;;17.85;33.26;102914.75;4176368;28;20036;-60
2021/04/24 00:31:18;;;;;;;1.85;1.40;;;;;;;17.82;33.19;102916.03;4175146;28;20033;-60
2021/04/24 00:33:19;;;;;;;2.65;1.70;;;;;;;17.78;33.54;102912.03;4175891;28;20044;-59
2021/04/24 00:35:20;;;;;;;2.47;1.60;;;;;;;17.80;33.26;102914.56;4174641;28;20599;-60
2021/04/24 00:37:20;;;;;;;4.85;1.92;;;;;;;17.75;33.35;102904.16;4175963;28;20035;-59
2021/04/24 00:39:21;;;;;;;2.40;2.20;;;;;;;17.73;33.28;102902.66;4175447;28;20061;-60
2021/04/24 00:41:21;;;;;;;2.75;1.90;;;;;;;17.68;33.39;102899.72;4175345;28;20037;-60
2021/04/24 00:43:22;;;;;;;2.10;1.90;;;;;;;17.64;33.41;102902.06;4174472;28;20043;-60
2021/04/24 00:45:24;;;;;;;2.55;1.50;;;;;;;17.62;33.49;102901.44;4173859;28;20830;-59
2021/04/24 00:47:25;;;;;;;3.53;1.77;;;;;;;17.60;33.54;102892.50;4175297;28;20033;-60
2021/04/24 00:49:26;;;;;;;2.60;2.10;;;;;;;17.64;33.53;102899.28;4177291;28;20029;-60
2021/04/24 00:51:26;;;;;;;3.92;2.35;;;;;;;17.55;33.37;102901.47;4175834;28;20025;-60
2021/04/24 00:53:27;;;;;;;2.85;2.38;;;;;;;17.46;33.34;102877.84;4176191;28;20033;-60
2021/04/24 00:55:27;;;;;;;1.92;1.50;;;;;;;17.57;33.57;102898.50;4174640;28;20029;-59
2021/04/24 00:57:28;;;;;;;2.83;1.70;;;;;;;17.53;33.47;102897.22;4176493;28;20685;-59
2021/04/24 00:59:30;;;;;;;1.65;1.20;;;;;;;17.52;33.51;102901.03;4177533;28;20029;-60
2021/04/24 01:01:30;;;;;;;2.60;1.60;;;;;;;17.41;33.43;102897.00;4176510;28;20440;-59
2021/04/24 01:03:31;;;;;;;3.13;1.88;;;;;;;17.43;33.41;102892.97;4176303;28;20029;-59
2021/04/24 01:05:34;;;;;;;1.85;1.50;;;;;;;17.42;33.23;102895.97;4175659;28;20029;-59
2021/04/24 01:07:35;;;;;;;2.35;1.58;;;;;;;17.37;33.61;102893.00;4175502;28;20689;-59
2021/04/24 01:09:35;;;;;;;4.60;1.65;;;;;;;17.38;33.54;102906.63;4173344;28;20043;-59
2021/04/24 01:11:36;;;;;;;1.50;1.38;;;;;;;17.35;33.61;102901.53;4176716;28;20032;-59
2021/04/24 01:13:36;;;;;;;2.22;1.45;;;;;;;17.36;33.52;102905.13;4173736;28;20029;-59
2021/04/24 01:15:37;;;;;;;3.55;1.85;;;;;;;17.27;33.69;102899.84;4174004;28;20028;-59
2021/04/24 01:17:39;;;;;;;2.60;1.48;;;;;;;17.27;33.67;102907.28;4176901;28;20025;-60
2021/04/24 01:19:39;;;;;;;1.70;1.50;;;;;;;17.28;33.51;102907.06;4173635;28;20835;-59
2021/04/24 01:21:41;;;;;;;2.00;1.80;;;;;;;17.32;33.69;102898.31;4181644;28;20112;-60
2021/04/24 01:23:41;;;;;;;1.48;1.30;;;;;;;17.22;33.66;102909.84;4173459;28;20041;-60
2021/04/24 01:25:45;;;;;;;1.85;1.65;;;;;;;17.27;33.70;102912.81;4174471;28;20125;-60
2021/04/24 01:27:50;;;;;;;3.65;1.88;;;;;;;17.15;33.55;102898.81;4175936;28;20041;-59
2021/04/24 01:29:50;;;;;;;2.50;1.63;;;;;;;17.10;34.11;102909.66;4175415;28;20039;-60
2021/04/24 01:31:51;;;;;;;2.00;1.63;;;;;;;17.12;33.80;102910.31;4174013;28;20043;-60
2021/04/24 01:33:51;;;;;;;1.92;1.65;;;;;;;17.02;33.86;102907.16;4172606;28;20033;-60
2021/04/24 01:35:52;;;;;;;2.13;1.85;;;;;;;17.03;33.74;102904.16;4176956;28;20033;-59
2021/04/24 01:37:52;;;;;;;2.15;1.67;;;;;;;17.09;33.69;102913.53;4173456;28;20040;-60
2021/04/24 01:39:52;;;;;;;2.00;1.67;;;;;;;17.01;33.65;102894.41;4175263;28;20029;-60
2021/04/24 01:41:53;;;;;;;1.90;1.60;;;;;;;17.06;33.80;102908.41;4175179;28;20041;-60
2021/04/24 01:43:55;;;;;;;2.35;1.80;;;;;;;16.98;33.82;102909.50;4175865;28;20040;-60
2021/04/24 01:45:55;;;;;;;2.30;1.63;;;;;;;17.07;33.60;102907.38;4175277;28;20048;-60
2021/04/24 01:47:56;;;;;;;1.48;1.38;;;;;;;16.88;33.70;102882.28;4176937;28;20036;-60
2021/04/24 01:49:57;;;;;;;1.58;1.48;;;;;;;16.97;33.76;102907.78;4174880;28;20033;-60
2021/04/24 01:51:57;;;;;;;2.50;1.58;;;;;;;16.91;33.54;102905.88;4176406;28;20122;-60
2021/04/24 01:53:57;;;;;;;1.77;1.60;;;;;;;16.97;33.84;102910.56;4173879;28;20036;-60
2021/04/24 01:55:58;;;;;;;1.65;1.55;;;;;;;16.89;33.86;102900.56;4176559;28;20410;-60
2021/04/24 01:58:00;;;;;;;1.63;1.52;;;;;;;16.90;33.74;102895.91;4174885;28;20048;-60
2021/04/24 02:00:04;;;;;;;4.63;1.95;;;;;;;16.87;33.76;102896.34;4175735;28;20044;-60
2021/04/24 02:02:04;;;;;;;1.95;1.52;;;;;;;16.87;33.96;102899.94;4174284;28;20044;-60
2021/04/24 02:04:05;;;;;;;2.83;1.42;;;;;;;16.88;33.91;102901.66;4175020;28;20093;-60
2021/04/24 02:06:05;;;;;;;1.70;1.58;;;;;;;16.78;33.83;102886.56;4173553;28;20036;-60
2021/04/24 02:08:12;;;;;;;1.40;1.30;;;;;;;16.77;33.88;102894.00;4173578;28;20102;-60
2021/04/24 02:10:12;;;;;;;1.30;1.20;;;;;;;16.69;33.87;102881.22;4174308;28;20037;-60
2021/04/24 02:12:14;;;;;;;1.75;1.58;;;;;;;16.74;34.05;102883.34;4176998;28;20092;-60
2021/04/24 02:14:14;;;;;;;2.38;1.33;;;;;;;16.77;33.90;102895.91;4177108;28;20048;-60
2021/04/24 02:16:14;;;;;;;3.50;1.42;;;;;;;16.70;33.83;102888.47;4179128;28;20338;-60
2021/04/24 02:18:15;;;;;;;1.92;1.52;;;;;;;16.70;33.74;102904.22;4178574;28;20029;-60
2021/04/24 02:20:17;;;;;;;2.15;1.73;;;;;;;16.68;33.88;102893.38;4177880;28;20500;-60
2021/04/24 02:22:19;;;;;;;1.55;1.42;;;;;;;16.70;33.68;102894.00;4177394;28;20393;-60
2021/04/24 02:24:19;;;;;;;2.88;1.50;;;;;;;16.67;33.80;102894.44;4176623;28;20033;-60
2021/04/24 02:26:20;;;;;;;1.75;1.65;;;;;;;16.56;34.08;102882.06;4177150;28;20056;-60
2021/04/24 02:28:20;;;;;;;2.83;1.52;;;;;;;16.64;34.04;102885.69;4179353;28;20033;-60
2021/04/24 02:30:21;;;;;;;2.20;1.70;;;;;;;16.61;33.96;102886.97;4178657;28;20044;-60
2021/04/24 02:32:25;;;;;;;2.10;1.80;;;;;;;16.57;34.08;102877.38;4176091;28;20409;-60
2021/04/24 02:34:25;;;;;;;2.20;2.00;;;;;;;16.56;34.12;102884.84;4176090;28;20064;-60
2021/04/24 02:36:26;;;;;;;1.63;1.52;;;;;;;16.59;33.84;102886.34;4177051;28;20457;-60
2021/04/24 02:38:29;;;;;;;4.13;2.53;;;;;;;16.51;34.08;102875.47;4177916;28;20028;-60
2021/04/24 02:40:29;;;;;;;1.77;1.63;;;;;;;16.60;33.98;102882.50;4179207;28;20033;-60
2021/04/24 02:42:30;;;;;;;3.05;1.70;;;;;;;16.50;34.09;102888.44;4177040;28;20776;-60
2021/04/24 02:44:31;;;;;;;4.18;2.17;;;;;;;16.42;34.11;102887.81;4176519;28;20541;-60
2021/04/24 02:46:31;;;;;;;2.03;1.50;;;;;;;16.46;34.17;102892.69;4176942;28;20131;-60
2021/04/24 02:48:31;;;;;;;2.80;1.60;;;;;;;16.47;33.98;102899.09;4177989;28;20513;-60
2021/04/24 02:50:32;;;;;;;1.85;1.50;;;;;;;16.44;34.14;102902.28;4178522;28;20079;-60
2021/04/24 02:52:32;;;;;;;3.03;1.60;;;;;;;16.43;34.12;102898.66;4176365;28;20044;-60
2021/04/24 02:54:34;;;;;;;1.83;1.25;;;;;;;16.41;34.08;102900.78;4177625;28;20037;-60
2021/04/24 02:56:34;;;;;;;2.20;1.67;;;;;;;16.38;34.16;102899.28;4177875;28;20029;-60
2021/04/24 02:58:35;;;;;;;2.47;1.75;;;;;;;16.22;34.35;102872.09;4180893;28;20474;-60
2021/04/24 03:00:35;;;;;;;1.90;1.38;;;;;;;16.33;34.24;102899.09;4177012;28;20037;-60
2021/04/24 03:02:36;;;;;;;2.40;1.58;;;;;;;16.33;34.03;102896.31;4175802;28;20383;-60
2021/04/24 03:04:36;;;;;;;1.77;1.50;;;;;;;16.33;34.16;102907.38;4176142;28;20029;-60
2021/04/24 03:06:36;;;;;;;3.45;2.00;;;;;;;16.32;34.17;102897.38;4179378;28;20053;-60
2021/04/24 03:08:37;;;;;;;2.65;2.20;;;;;;;16.31;34.29;102901.22;4176191;28;20029;-60
2021/04/24 03:10:39;;;;;;;2.80;1.50;;;;;;;16.28;34.53;102904.41;4177579;28;20411;-59
2021/04/24 03:12:40;;;;;;;2.92;1.58;;;;;;;16.26;34.22;102898.22;4179142;28;20036;-60
2021/04/24 03:14:41;;;;;;;2.85;1.58;;;;;;;16.26;34.21;102900.13;4179760;28;20032;-59
2021/04/24 03:16:41;;;;;;;1.80;1.42;;;;;;;16.24;34.15;102896.75;4178444;28;20033;-60
2021/04/24 03:18:42;;;;;;;2.40;1.52;;;;;;;16.27;34.21;102899.09;4178537;28;20025;-60
2021/04/24 03:20:42;;;;;;;2.47;1.25;;;;;;;16.25;34.36;102895.66;4177343;28;20074;-59
2021/04/24 03:22:43;;;;;;;2.35;1.67;;;;;;;16.21;34.34;102898.84;4177645;28;20060;-60
2021/04/24 03:24:44;;;;;;;2.10;1.50;;;;;;;16.21;34.23;102893.31;4173611;28;20079;-60
2021/04/24 03:26:44;;;;;;;1.48;1.38;;;;;;;16.20;34.14;102894.41;4178132;28;20036;-60
2021/04/24 03:28:45;;;;;;;1.85;1.48;;;;;;;16.14;34.14;102881.44;4179357;28;20043;-60
2021/04/24 03:30:45;;;;;;;1.67;1.30;;;;;;;16.18;34.19;102890.97;4176139;28;20029;-60
2021/04/24 03:32:45;;;;;;;2.40;1.70;;;;;;;16.18;34.36;102892.91;4176799;28;20037;-60
2021/04/24 03:34:46;;;;;;;3.53;1.67;;;;;;;16.11;34.38;102890.13;4177302;28;20033;-60
2021/04/24 03:36:46;;;;;;;2.13;1.60;;;;;;;16.14;34.10;102894.38;4172569;28;20052;-59
2021/04/24 03:38:47;;;;;;;1.98;1.73;;;;;;;16.12;34.22;102897.34;4177007;28;20098;-59
2021/04/24 03:40:47;;;;;;;2.70;1.80;;;;;;;16.09;34.39;102891.41;4177814;28;20037;-60
2021/04/24 03:42:47;;;;;;;2.20;1.58;;;;;;;16.11;34.45;102883.75;4177264;28;20700;-60
2021/04/24 03:44:48;;;;;;;2.42;1.52;;;;;;;16.04;34.34;102873.53;4177183;28;20037;-60
2021/04/24 03:46:48;;;;;;;1.83;1.40;;;;;;;16.08;34.30;102884.16;4176753;28;20091;-60
2021/04/24 03:48:49;;;;;;;2.85;1.50;;;;;;;16.00;34.42;102886.09;4179665;28;20475;-60
2021/04/24 03:50:49;;;;;;;1.88;1.70;;;;;;;16.03;34.39;102888.44;4176487;28;20039;-60
2021/04/24 03:52:51;;;;;;;2.22;1.63;;;;;;;16.01;34.33;102893.28;4175728;28;20551;-60
2021/04/24 03:54:51;;;;;;;1.85;1.40;;;;;;;15.99;34.33;102892.66;4176214;28;20474;-60
2021/04/24 03:56:51;;;;;;;3.25;1.45;;;;;;;16.04;34.29;102881.81;4175814;28;20032;-60
2021/04/24 03:58:52;;;;;;;2.05;1.50;;;;;;;16.00;34.39;102891.59;4175092;28;20475;-60
2021/04/24 04:00:52;;;;;;;1.63;1.52;;;;;;;15.96;34.42;102884.78;4175507;28;20032;-60
2021/04/24 04:02:57;;;;;;;1.90;1.48;;;;;;;15.94;34.39;102884.16;4176596;28;20033;-60
2021/04/24 04:04:57;;;;;;;3.30;1.75;;;;;;;15.93;34.53;102885.22;4176618;28;20032;-60
2021/04/24 04:06:58;;;;;;;1.75;1.65;;;;;;;15.87;34.49;102885.19;4174867;28;20118;-60
2021/04/24 04:08:58;;;;;;;2.40;1.50;;;;;;;15.88;34.49;102884.13;4175469;28;20033;-61
2021/04/24 04:10:59;;;;;;;1.70;1.60;;;;;;;15.88;34.28;102887.75;4177252;28;20103;-60
2021/04/24 04:13:01;;;;;;;2.13;1.92;;;;;;;15.80;34.63;102893.44;4176931;28;20029;-60
2021/04/24 04:15:04;;;;;;;2.58;2.10;;;;;;;15.83;34.45;102891.13;4177826;28;20033;-60
2021/04/24 04:17:04;;;;;;;1.73;1.35;;;;;;;15.87;34.32;102886.03;4176793;28;20497;-60
2021/04/24 04:19:04;;;;;;;1.70;1.52;;;;;;;15.90;34.52;102893.06;4175203;28;20032;-60
2021/04/24 04:21:06;;;;;;;1.42;1.33;;;;;;;15.83;34.55;102885.63;4178064;28;20029;-60
2021/04/24 04:23:07;;;;;;;2.15;1.45;;;;;;;15.70;34.59;102891.06;4175485;28;20029;-60
2021/04/24 04:25:08;;;;;;;2.08;1.38;;;;;;;15.80;34.53;102897.09;4178604;28;20028;-60
2021/04/24 04:27:08;;;;;;;2.60;1.70;;;;;;;15.78;34.53;102892.81;4175501;28;20099;-60
2021/04/24 04:29:09;;;;;;;2.45;2.25;;;;;;;15.75;34.55;102895.97;4175992;28;20048;-60
2021/04/24 04:31:10;;;;;;;1.75;1.48;;;;;;;15.68;34.62;102895.94;4175562;28;20037;-60
2021/04/24 04:33:10;;;;;;;2.65;1.73;;;;;;;15.83;34.33;102895.78;4178558;28;20059;-60
2021/04/24 04:35:12;;;;;;;1.35;1.23;;;;;;;15.71;34.52;102889.13;4175089;28;20541;-60
2021/04/24 04:37:13;;;;;;;3.28;1.50;;;;;;;15.68;34.59;102890.44;4175290;28;20064;-60
2021/04/24 04:39:13;;;;;;;1.77;1.30;;;;;;;15.69;34.57;102889.34;4173104;28;20434;-60
2021/04/24 04:41:14;;;;;;;1.67;1.40;;;;;;;15.68;34.57;102888.50;4175576;28;20528;-60
2021/04/24 04:43:15;;;;;;;1.70;1.60;;;;;;;15.64;34.79;102878.91;4175109;28;20482;-60
2021/04/24 04:45:17;;;;;;;2.08;1.55;;;;;;;15.65;34.66;102885.31;4176268;28;20083;-60
2021/04/24 04:47:18;;;;;;;2.55;1.63;;;;;;;15.69;34.67;102894.88;4174247;28;20539;-60
2021/04/24 04:49:18;;;;;;;1.35;1.20;;;;;;;15.67;34.62;102891.47;4176276;28;20025;-60
2021/04/24 04:51:19;;;;;;;1.42;1.33;;;;;;;15.59;34.63;102888.91;4175149;28;20033;-60
2021/04/24 04:53:19;;;;;;;1.48;1.38;;;;;;;15.60;34.64;102891.47;4175442;28;20140;-60
2021/04/24 04:55:19;;;;;;;2.15;1.83;;;;;;;15.68;34.33;102890.44;4175235;28;20040;-60
2021/04/24 04:57:20;;;;;;;1.60;1.50;;;;;;;15.65;34.56;102894.44;4175149;28;20053;-60
2021/04/24 04:59:20;;;;;;;2.38;1.50;;;;;;;15.64;34.53;102892.72;4176319;28;20034;-60
2021/04/24 05:01:21;;;;;;;1.63;1.30;;;;;;;15.70;34.37;102893.81;4175035;28;20033;-60
2021/04/24 05:03:21;;;;;;;1.35;1.25;;;;;;;15.74;34.39;102891.47;4177846;28;20037;-60
2021/04/24 05:05:22;;;;;;;1.25;1.15;;;;;;;15.77;34.35;102891.09;4174692;28;20064;-60
2021/04/24 05:07:22;;;;;;;2.88;1.15;;;;;;;15.68;34.47;102891.25;4175392;28;20082;-60
2021/04/24 05:09:22;;;;;;;1.67;1.58;;;;;;;15.69;34.38;102886.59;4178177;28;20040;-60
2021/04/24 05:11:23;;;;;;;1.77;1.67;;;;;;;15.66;34.42;102889.75;4174730;28;20037;-60
2021/04/24 05:13:23;;;;;;;1.80;1.58;;;;;;;15.71;34.32;102900.19;4174850;28;20035;-60
2021/04/24 05:15:24;;;;;;;2.03;1.00;;;;;;;15.76;34.21;102894.91;4175465;28;20524;-60
2021/04/24 05:17:24;;;;;;;1.50;1.38;;;;;;;15.73;34.00;102885.13;4174877;28;20043;-60
2021/04/24 05:19:25;;;;;;;1.42;1.33;;;;;;;15.76;34.15;102889.38;4176210;28;20050;-60
2021/04/24 05:21:25;;;;;;;1.50;1.40;;;;;;;15.77;34.20;102899.38;4174369;28;20429;-60
2021/04/24 05:23:25;;;;;;;1.55;1.45;;;;;;;15.77;34.38;102899.38;4173354;28;20059;-60
2021/04/24 05:25:26;;;;;;;2.55;1.33;;;;;;;15.72;34.28;102896.38;4175079;28;20383;-60
2021/04/24 05:27:27;;;;;;;2.25;1.20;;;;;;;15.77;34.07;102907.66;4174868;28;20053;-60
2021/04/24 05:29:27;;;;;;;1.27;1.17;;;;;;;15.80;34.13;102904.50;4172536;28;20047;-60
2021/04/24 05:31:28;;;;;;;1.88;1.58;;;;;;;15.77;34.07;102904.91;4175665;28;20037;-60
2021/04/24 05:33:28;;;;;;;2.20;1.30;;;;;;;15.83;34.00;102915.13;4175207;28;20036;-60
2021/04/24 05:35:29;;;;;;;1.70;1.60;;;;;;;15.88;33.92;102914.50;4177723;28;20390;-60
2021/04/24 05:37:29;;;;;;;1.88;1.63;;;;;;;15.95;33.89;102912.63;4174132;28;20076;-60
2021/04/24 05:39:30;;;;;;;1.60;1.30;;;;;;;15.94;33.61;102913.66;4175337;28;20029;-60
2021/04/24 05:41:30;;;;;;;1.50;1.40;;;;;;;15.96;33.67;102915.16;4173768;28;20514;-60
2021/04/24 05:43:31;;;;;;;1.77;1.65;;;;;;;15.94;33.73;102916.44;4174567;28;20078;-60
2021/04/24 05:45:31;;;;;;;1.63;1.40;;;;;;;16.00;33.63;102918.34;4175107;28;20028;-60
2021/04/24 05:47:32;;;;;;;2.35;1.40;;;;;;;16.01;33.57;102909.84;4174499;28;20643;-60
2021/04/24 05:49:33;;;;;;;3.22;1.60;;;;;;;16.05;33.57;102915.84;4176892;28;20029;-60
2021/04/24 05:51:33;;;;;;;2.33;1.65;;;;;;;16.02;33.68;102911.56;4177322;28;20036;-60
2021/04/24 05:53:34;;;;;;;1.60;1.38;;;;;;;16.05;33.50;102915.84;4179557;28;20033;-60
2021/04/24 05:55:34;;;;;;;1.67;1.55;;;;;;;16.07;33.34;102919.22;4176723;28;20074;-60
2021/04/24 05:57:35;;;;;;;1.65;1.50;;;;;;;16.08;33.27;102915.41;4178914;28;20057;-61
2021/04/24 05:59:36;;;;;;;1.73;1.00;;;;;;;16.01;33.26;102909.03;4178403;28;20469;-60
2021/04/24 06:01:36;;;;;;;1.40;1.30;;;;;;;16.14;33.35;102928.41;4179990;28;20059;-60
2021/04/24 06:03:36;;;;;;;2.78;1.60;;;;;;;16.16;33.22;102920.75;4178130;28;20037;-60
2021/04/24 06:05:37;;;;;;;2.75;1.40;;;;;;;16.21;33.43;102922.88;4179190;28;20521;-60
2021/04/24 06:07:39;;;;;;;3.35;1.42;;;;;;;16.12;33.12;102913.09;4179348;28;20029;-60
2021/04/24 06:09:39;;;;;;;1.52;1.35;;;;;;;16.17;33.03;102927.97;4179914;28;20028;-60
2021/04/24 06:11:40;;;;;;;1.90;1.17;;;;;;;16.19;32.96;102919.47;4175061;28;20073;-60
2021/04/24 06:13:40;;;;;;;1.25;1.15;;;;;;;16.19;33.15;102922.25;4179534;28;20445;-61
2021/04/24 06:15:41;;;;;;;1.77;1.67;;;;;;;16.20;33.09;102929.44;4178802;28;20489;-60
2021/04/24 06:17:42;;;;;;;1.42;1.33;;;;;;;16.16;33.08;102915.22;4179198;28;20143;-60
2021/04/24 06:19:42;;;;;;;1.25;1.15;;;;;;;16.18;33.08;102924.13;4177808;28;20033;-60
2021/04/24 06:21:42;;;;;;;1.40;1.30;;;;;;;16.25;33.01;102928.81;4179146;28;20363;-60
2021/04/24 06:23:43;;;;;;;1.83;1.40;;;;;;;16.22;33.02;102913.53;4176865;28;20039;-60
2021/04/24 06:25:43;;;;;;;1.77;1.58;;;;;;;16.32;32.96;102908.41;4176719;28;21712;-60
2021/04/24 06:27:44;;;;;;;1.63;1.52;;;;;;;16.34;32.83;102920.13;4176875;28;20052;-60
2021/04/24 06:29:45;;;;;;;1.50;1.40;;;;;;;16.44;32.78;102925.25;4176845;28;20037;-61
2021/04/24 06:31:45;;;;;;;1.25;1.15;;;;;;;16.40;32.51;102907.38;4177953;28;20512;-61
2021/04/24 06:33:46;;;;;;;1.92;1.60;;;;;;;16.55;32.34;102927.34;4179096;28;20032;-60
2021/04/24 06:35:46;;;;;;;1.75;1.65;;;;;;;16.61;32.41;102917.38;4181335;28;20040;-60
2021/04/24 06:37:47;;;;;;;1.15;1.00;;;;;;;16.66;32.22;102923.13;4175742;28;20040;-59
2021/04/24 06:39:47;;;;;;;1.50;1.40;;;;;;;16.73;31.99;102926.75;4177536;28;20041;-62
2021/04/24 06:41:47;;;;;;;2.17;1.30;;;;;;;16.81;32.14;102938.69;4177420;28;20033;-60
2021/04/24 06:43:48;;;;;;;1.42;1.17;;;;;;;16.87;31.91;102943.34;4176771;28;20037;-60
2021/04/24 06:45:48;;;;;;;1.25;1.15;;;;;;;17.05;31.73;102932.47;4178548;28;20059;-60
2021/04/24 06:47:50;;;;;;;2.97;1.60;;;;;;;17.27;31.37;102923.88;4178043;28;20882;-60
2021/04/24 06:49:51;;;;;;;2.05;1.38;;;;;;;17.33;31.09;102925.78;4177420;28;20040;-60
2021/04/24 06:51:51;;;;;;;2.35;1.30;;;;;;;17.30;30.95;102920.69;4178700;28;20029;-60
2021/04/24 06:53:52;;;;;;;1.15;1.05;;;;;;;17.35;31.14;102926.44;4176832;28;20078;-60
2021/04/24 06:55:54;;;;;;;0.93;0.90;;;;;;;17.34;31.12;102929.44;4179101;28;20083;-60
2021/04/24 06:57:55;;;;;;;4.18;1.35;;;;;;;17.22;31.21;102935.59;4175653;28;20158;-60
2021/04/24 06:59:55;;;;;;;1.30;1.20;;;;;;;17.21;31.24;102933.06;4176137;28;20067;-60
2021/04/24 07:01:56;;;;;;;1.60;1.30;;;;;;;17.23;31.08;102934.56;4179143;28;20673;-61
2021/04/24 07:03:56;;;;;;;1.17;1.13;;;;;;;17.36;31.08;102918.97;4178641;28;20037;-60
2021/04/24 07:05:57;;;;;;;1.20;1.10;;;;;;;17.45;30.72;102926.81;4179274;28;20402;-60
2021/04/24 07:07:57;;;;;;;1.10;0.90;;;;;;;17.53;30.79;102930.44;4178336;28;20033;-60
2021/04/24 07:09:58;;;;;;;2.47;1.60;;;;;;;17.58;30.71;102927.84;4172220;28;20130;-60
2021/04/24 07:11:59;;;;;;;1.40;1.30;;;;;;;17.61;30.66;102921.88;4174718;28;20036;-60
2021/04/24 07:13:59;;;;;;;2.28;1.30;;;;;;;17.52;30.84;102923.19;4174320;28;20546;-62
2021/04/24 07:16:02;;;;;;;1.52;1.40;;;;;;;17.54;30.74;102930.22;4175123;28;20041;-59
2021/04/24 07:18:03;;;;;;;1.60;1.50;;;;;;;17.56;30.80;102924.47;4171632;28;20037;-60
2021/04/24 07:20:06;;;;;;;2.65;1.30;;;;;;;17.54;30.95;102921.91;4171042;28;20438;-60
2021/04/24 07:22:06;;;;;;;1.60;1.50;;;;;;;17.57;30.97;102931.72;4173967;28;20024;-61
2021/04/24 07:24:07;;;;;;;1.25;1.15;;;;;;;17.55;30.81;102931.06;4172925;28;20029;-61
2021/04/24 07:26:09;;;;;;;2.50;1.75;;;;;;;17.53;31.20;102941.53;4175964;28;20628;-61
2021/04/24 07:28:09;;;;;;;2.63;1.52;;;;;;;17.59;30.74;102924.03;4174238;28;20139;-61
2021/04/24 07:30:10;;;;;;;2.13;1.20;;;;;;;17.85;30.44;102933.31;4175424;28;20832;-61
2021/04/24 07:32:11;;;;;;;1.30;1.20;;;;;;;17.83;30.50;102930.75;4172821;28;20071;-61
2021/04/24 07:34:12;;;;;;;1.77;1.55;;;;;;;17.82;30.62;102940.13;4171950;28;20406;-61
2021/04/24 07:36:13;;;;;;;1.60;1.50;;;;;;;17.84;30.68;102949.06;4174527;28;20057;-62
2021/04/24 07:38:13;;;;;;;2.00;1.40;;;;;;;17.93;30.58;102944.94;4175332;28;20094;-61
2021/04/24 07:40:14;;;;;;;2.35;1.40;;;;;;;18.05;30.32;102939.56;4172036;28;20595;-61
2021/04/24 07:42:14;;;;;;;1.23;1.13;;;;;;;18.15;29.92;102928.84;4174639;28;20056;-61
2021/04/24 07:44:15;;;;;;;1.55;1.05;;;;;;;18.04;30.05;102915.69;4171977;28;20036;-61
2021/04/24 07:46:16;;;;;;;1.83;1.30;;;;;;;18.07;30.38;102934.63;4173276;28;20036;-61
2021/04/24 07:48:16;;;;;;;1.30;1.20;;;;;;;18.30;29.81;102936.00;4174312;28;20044;-60
2021/04/24 07:50:20;;;;;;;1.85;1.17;;;;;;;18.18;30.15;102945.03;4172160;28;20033;-60
2021/04/24 07:52:21;;;;;;;1.10;1.00;;;;;;;18.34;30.19;102931.75;4174312;28;20032;-61
2021/04/24 07:54:22;;;;;;;1.30;1.17;;;;;;;18.13;30.30;102930.13;4173527;28;20029;-60
2021/04/24 07:56:22;;;;;;;1.10;0.90;;;;;;;18.01;30.68;102938.31;4172721;28;20033;-60
2021/04/24 07:58:22;;;;;;;1.52;1.42;;;;;;;18.00;30.58;102942.16;4173146;28;20090;-60
2021/04/24 08:00:24;;;;;;;1.42;1.33;;;;;;;17.97;30.63;102937.91;4176011;28;20631;-60
2021/04/24 08:02:24;;;;;;;2.60;1.70;;;;;;;17.96;30.64;102938.97;4174880;28;20043;-60
2021/04/24 08:04:24;;;;;;;2.40;1.40;;;;;;;18.01;30.56;102946.63;4177308;28;20033;-60
2021/04/24 08:06:25;;;;;;;1.98;1.52;;;;;;;18.03;30.68;102940.84;4173698;28;20048;-61
2021/04/24 08:08:25;;;;;;;1.20;1.10;;;;;;;18.17;30.55;102937.78;4175362;28;20029;-60
2021/04/24 08:10:27;;;;;;;2.70;1.42;;;;;;;18.20;30.55;102930.97;4174429;28;20043;-61
2021/04/24 08:12:27;;;;;;;2.10;1.65;;;;;;;18.52;30.08;102934.59;4174830;28;20079;-60
2021/04/24 08:14:28;;;;;;;1.83;1.52;;;;;;;18.55;29.85;102933.28;4176989;28;20025;-61
2021/04/24 08:16:28;;;;;;;1.92;1.45;;;;;;;18.53;30.23;102938.22;4171047;28;20355;-60
2021/04/24 08:18:28;;;;;;;1.88;1.33;;;;;;;18.75;29.68;102927.56;4172372;28;21065;-60
2021/04/24 08:20:29;;;;;;;1.10;1.00;;;;;;;18.67;29.85;102934.22;4174364;28;20033;-60
2021/04/24 08:22:29;;;;;;;2.40;1.40;;;;;;;18.73;29.78;102937.19;4174140;28;20025;-60
2021/04/24 08:24:30;;;;;;;2.50;1.25;;;;;;;18.75;29.83;102935.03;4172276;28;20021;-60
2021/04/24 08:26:31;;;;;;;1.63;1.52;;;;;;;18.94;29.61;102931.22;4175051;28;20040;-61
2021/04/24 08:28:31;;;;;;;1.52;1.42;;;;;;;19.06;29.41;102931.31;4173538;28;20410;-60
2021/04/24 08:30:32;;;;;;;1.27;1.17;;;;;;;19.22;29.27;102932.69;4175902;28;20103;-60
2021/04/24 08:32:32;;;;;;;1.30;1.20;;;;;;;19.27;29.26;102938.38;4176362;28;20040;-60
2021/04/24 08:34:33;;;;;;;2.20;1.20;;;;;;;19.21;29.36;102939.31;4173152;28;20025;-60
2021/04/24 08:36:33;;;;;;;1.73;1.30;;;;;;;18.95;29.71;102935.69;4174388;28;20032;-62
2021/04/24 08:38:34;;;;;;;1.25;1.13;;;;;;;19.08;29.38;102937.50;4175283;28;20440;-61
2021/04/24 08:40:35;;;;;;;1.90;1.48;;;;;;;19.13;29.76;102929.34;4172284;28;20497;-61
2021/04/24 08:42:35;;;;;;;1.55;1.35;;;;;;;19.05;29.70;102932.41;4174605;28;20017;-62
2021/04/24 08:44:36;;;;;;;1.20;1.08;;;;;;;19.33;29.43;102943.00;4173334;28;21094;-62
2021/04/24 08:46:37;;;;;;;1.77;1.00;;;;;;;19.45;29.36;102945.00;4174965;28;20021;-62
2021/04/24 08:48:38;;;;;;;1.40;1.02;;;;;;;19.40;29.42;102942.94;4174109;28;20051;-61
2021/04/24 08:50:38;;;;;;;1.10;1.00;;;;;;;19.43;29.54;102939.69;4173447;28;20037;-62
2021/04/24 08:52:41;;;;;;;1.65;1.52;;;;;;;19.51;29.21;102930.19;4175105;28;20025;-62
2021/04/24 08:54:41;;;;;;;1.25;1.10;;;;;;;19.40;29.63;102937.38;4172543;28;20036;-62
2021/04/24 08:56:42;;;;;;;2.20;1.67;;;;;;;19.67;29.45;102937.06;4171620;28;20032;-62
2021/04/24 08:58:43;;;;;;;2.95;1.88;;;;;;;19.65;29.18;102937.31;4172006;28;20108;-62
2021/04/24 09:00:46;;;;;;;2.55;1.65;;;;;;;19.51;29.75;102939.41;4171013;28;20441;-62
2021/04/24 09:02:46;;;;;;;2.55;1.75;;;;;;;19.59;29.48;102932.69;4171819;28;20025;-62
2021/04/24 09:04:47;;;;;;;2.33;1.60;;;;;;;19.64;29.54;102932.81;4172267;28;20475;-62
2021/04/24 09:06:47;;;;;;;2.58;1.50;;;;;;;19.93;29.21;102928.41;4171294;28;20090;-62
2021/04/24 09:08:54;;;;;;;2.15;1.33;;;;;;;19.99;28.93;102923.84;4172823;28;20025;-62
2021/04/24 09:10:56;;;;;;;3.25;1.80;;;;;;;19.70;29.41;102931.03;4171845;28;20048;-62
2021/04/24 09:12:56;;;;;;;2.10;1.50;;;;;;;19.52;29.78;102935.50;4169916;28;20494;-62
2021/04/24 09:15:21;;;;;;;1.48;1.38;;;;;;;19.72;29.54;102924.16;4170867;28;20044;-62
2021/04/24 09:17:21;;;;;;;2.13;1.52;;;;;;;20.18;28.82;102923.78;4170799;28;20398;-62
2021/04/24 09:19:30;;;;;;;4.95;1.50;;;;;;;20.38;28.63;102923.47;4172628;28;20029;-62
2021/04/24 09:21:31;;;;;;;2.08;1.85;;;;;;;20.60;28.33;102916.25;4172925;28;20106;-62